createdAt,value
2023-04-22T00:02:23.374Z,10.61
2023-04-22T00:04:54.692Z,10.61
2023-04-22T00:07:25.681Z,10.61
2023-04-22T00:09:55.456Z,10.60
2023-04-22T00:12:23.476Z,10.58
2023-04-22T00:14:53.157Z,10.60
2023-04-22T00:17:22.717Z,10.66
2023-04-22T00:19:50.912Z,10.71
2023-04-22T00:22:19.195Z,10.77
2023-04-22T00:24:47.705Z,10.81
2023-04-22T00:27:17.338Z,10.90
2023-04-22T00:29:46.784Z,10.98
2023-04-22T00:32:15.829Z,10.93
2023-04-22T00:34:44.205Z,10.88
2023-04-22T00:37:12.523Z,10.80
2023-04-22T00:39:41.452Z,10.71
2023-04-22T00:42:11.701Z,10.69
2023-04-22T00:44:42.390Z,10.65
2023-04-22T00:47:10.911Z,10.59
2023-04-22T00:49:40.608Z,10.54
2023-04-22T00:52:09.284Z,10.50
2023-04-22T00:54:40.729Z,10.46
2023-04-22T00:57:09.187Z,10.40
2023-04-22T00:59:37.880Z,10.37
2023-04-22T01:02:08.131Z,10.37
2023-04-22T01:04:37.531Z,10.40
2023-04-22T01:07:07.154Z,10.39
2023-04-22T01:09:36.427Z,10.39
2023-04-22T01:12:04.832Z,10.35
2023-04-22T01:14:33.466Z,10.55
2023-04-22T01:17:01.786Z,10.49
2023-04-22T01:19:34.021Z,10.48
2023-04-22T01:22:03.613Z,10.41
2023-04-22T01:24:35.812Z,10.34
2023-04-22T01:27:04.072Z,10.30
2023-04-22T01:29:33.412Z,10.25
2023-04-22T01:32:04.357Z,10.20
2023-04-22T01:34:33.074Z,10.16
2023-04-22T01:37:03.376Z,10.13
2023-04-22T01:39:33.326Z,10.09
2023-04-22T01:42:02.254Z,10.06
2023-04-22T01:44:31.792Z,10.05
2023-04-22T01:47:01.136Z,10.05
2023-04-22T01:49:29.301Z,10.11
2023-04-22T01:51:58.744Z,10.09
2023-04-22T01:54:27.209Z,10.06
2023-04-22T01:56:58.762Z,10.02
2023-04-22T01:59:27.044Z,10.00
2023-04-22T02:01:55.847Z,9.93
2023-04-22T02:04:24.277Z,9.88
2023-04-22T02:06:52.634Z,9.84
2023-04-22T02:09:20.955Z,9.86
2023-04-22T02:11:49.409Z,9.86
2023-04-22T02:14:20.297Z,9.85
2023-04-22T02:16:48.582Z,9.82
2023-04-22T02:19:18.099Z,9.81
2023-04-22T02:21:46.607Z,9.81
2023-04-22T02:24:15.126Z,9.78
2023-04-22T02:26:43.693Z,9.71
2023-04-22T02:29:11.977Z,9.70
2023-04-22T02:31:41.798Z,9.68
2023-04-22T02:34:10.409Z,9.65
2023-04-22T02:36:38.568Z,9.62
2023-04-22T02:39:08.556Z,9.57
2023-04-22T02:41:37.935Z,9.53
2023-04-22T02:44:06.536Z,9.52
2023-04-22T02:46:34.995Z,9.48
2023-04-22T02:49:04.599Z,9.47
2023-04-22T02:51:35.270Z,9.48
2023-04-22T02:54:03.747Z,9.47
2023-04-22T02:56:32.727Z,9.47
2023-04-22T02:59:00.893Z,9.46
2023-04-22T03:01:30.954Z,9.44
2023-04-22T03:04:05.001Z,9.44
2023-04-22T03:06:34.606Z,9.43
2023-04-22T03:09:03.142Z,9.37
2023-04-22T03:11:31.377Z,9.35
2023-04-22T03:14:01.800Z,9.31
2023-04-22T03:16:30.605Z,9.25
2023-04-22T03:19:05.887Z,9.21
2023-04-22T03:21:34.560Z,9.15
2023-04-22T03:24:05.093Z,9.10
2023-04-22T03:26:35.894Z,9.04
2023-04-22T03:29:05.339Z,9.00
2023-04-22T03:31:33.891Z,8.93
2023-04-22T03:34:02.802Z,8.90
2023-04-22T03:36:36.264Z,8.88
2023-04-22T03:39:04.945Z,8.83
2023-04-22T03:41:37.601Z,8.79
2023-04-22T03:44:06.420Z,8.77
2023-04-22T03:46:39.824Z,8.73
2023-04-22T03:49:25.298Z,8.72
2023-04-22T03:51:55.202Z,8.69
2023-04-22T03:54:25.727Z,8.68
2023-04-22T03:56:54.481Z,8.65
2023-04-22T03:59:26.370Z,8.61
2023-04-22T04:01:55.249Z,8.57
2023-04-22T04:04:29.375Z,8.56
2023-04-22T04:07:03.585Z,8.55
2023-04-22T04:09:31.861Z,8.52
2023-04-22T04:12:00.004Z,8.52
2023-04-22T04:14:32.611Z,8.51
2023-04-22T04:17:01.508Z,8.45
2023-04-22T04:19:36.318Z,8.45
2023-04-22T04:22:06.904Z,8.45
2023-04-22T04:24:42.167Z,8.42
2023-04-22T04:27:17.041Z,8.39
2023-04-22T04:29:52.578Z,8.41
2023-04-22T04:32:43.099Z,8.40
2023-04-22T04:35:14.250Z,8.39
2023-04-22T04:37:48.300Z,8.42
2023-04-22T04:40:16.762Z,8.43
2023-04-22T04:42:55.646Z,8.45
2023-04-22T04:45:28.714Z,8.45
2023-04-22T04:48:00.687Z,8.47
2023-04-22T04:50:35.689Z,8.49
2023-04-22T04:53:07.188Z,8.57
2023-04-22T04:55:43.350Z,8.61
2023-04-22T04:58:19.562Z,8.61
2023-04-22T05:00:51.330Z,8.65
2023-04-22T05:03:21.090Z,8.66
2023-04-22T05:05:51.173Z,8.70
2023-04-22T05:08:20.737Z,8.73
2023-04-22T05:10:52.366Z,8.76
2023-04-22T05:13:21.956Z,8.83
2023-04-22T05:15:51.302Z,8.88
2023-04-22T05:18:20.173Z,8.92
2023-04-22T05:20:51.145Z,9.00
2023-04-22T05:23:23.636Z,9.09
2023-04-22T05:25:55.637Z,9.22
2023-04-22T05:28:24.999Z,9.34
2023-04-22T05:30:58.886Z,9.43
2023-04-22T05:33:30.804Z,9.57
2023-04-22T05:35:59.940Z,9.66
2023-04-22T05:38:30.839Z,9.81
2023-04-22T05:40:59.975Z,9.92
2023-04-22T05:43:30.883Z,10.00
2023-04-22T05:46:09.634Z,10.01
2023-04-22T05:48:40.414Z,10.04
2023-04-22T05:51:23.580Z,10.03
2023-04-22T05:53:53.948Z,10.12
2023-04-22T05:56:22.340Z,10.11
2023-04-22T05:58:50.583Z,10.21
2023-04-22T06:01:24.824Z,10.29
2023-04-22T06:04:05.691Z,10.35
2023-04-22T06:06:36.640Z,10.47
2023-04-22T06:09:07.087Z,10.57
2023-04-22T06:11:38.160Z,10.67
2023-04-22T06:14:06.887Z,10.78
2023-04-22T06:16:36.617Z,10.85
2023-04-22T06:19:09.202Z,10.95
2023-04-22T06:21:40.543Z,10.97
2023-04-22T06:24:11.062Z,10.93
2023-04-22T06:26:39.671Z,10.94
2023-04-22T06:29:12.190Z,10.89
2023-04-22T06:31:42.067Z,11.04
2023-04-22T06:34:11.045Z,11.21
2023-04-22T06:36:39.613Z,11.27
2023-04-22T06:39:11.854Z,11.54
2023-04-22T06:41:46.495Z,11.84
2023-04-22T06:44:36.047Z,12.26
2023-04-22T06:47:23.088Z,12.53
2023-04-22T06:50:06.943Z,12.65
2023-04-22T06:52:40.241Z,12.84
2023-04-22T06:55:11.424Z,13.03
2023-04-22T06:57:40.113Z,13.49
2023-04-22T07:00:09.896Z,13.77
2023-04-22T07:02:40.743Z,13.70
2023-04-22T07:05:09.448Z,13.80
2023-04-22T07:07:38.073Z,13.88
2023-04-22T07:10:07.577Z,13.73
2023-04-22T07:12:45.914Z,13.90
2023-04-22T07:15:14.249Z,14.24
2023-04-22T07:17:43.637Z,14.71
2023-04-22T07:20:12.851Z,15.11
2023-04-22T07:22:41.365Z,15.25
2023-04-22T07:25:10.313Z,15.35
2023-04-22T07:27:39.163Z,15.53
2023-04-22T07:30:10.911Z,15.71
2023-04-22T07:32:40.254Z,15.65
2023-04-22T07:35:09.642Z,16.14
2023-04-22T07:37:37.800Z,16.44
2023-04-22T07:40:11.629Z,16.72
2023-04-22T07:42:42.528Z,16.88
2023-04-22T07:45:13.913Z,17.20
2023-04-22T07:47:42.120Z,17.09
2023-04-22T07:50:11.547Z,17.63
2023-04-22T07:52:39.931Z,17.35
2023-04-22T07:55:09.403Z,17.94
2023-04-22T07:57:39.249Z,18.07
2023-04-22T08:00:09.096Z,18.54
2023-04-22T08:02:44.750Z,17.99
2023-04-22T08:05:13.081Z,17.90
2023-04-22T08:07:41.517Z,18.11
2023-04-22T08:10:10.476Z,18.45
2023-04-22T08:12:39.697Z,18.76
2023-04-22T08:15:09.164Z,19.38
2023-04-22T08:17:37.682Z,19.85
2023-04-22T08:20:09.271Z,19.99
2023-04-22T08:22:38.986Z,19.52
2023-04-22T08:25:09.585Z,20.17
2023-04-22T08:27:40.236Z,20.12
2023-04-22T08:30:10.613Z,20.45
2023-04-22T08:32:39.253Z,19.76
2023-04-22T08:35:11.438Z,19.19
2023-04-22T08:37:41.657Z,19.48
2023-04-22T08:40:10.819Z,19.74
2023-04-22T08:42:39.161Z,20.00
2023-04-22T08:45:09.803Z,20.48
2023-04-22T08:47:39.140Z,20.65
2023-04-22T08:50:10.021Z,20.46
2023-04-22T08:52:40.787Z,19.66
2023-04-22T08:55:10.282Z,20.36
2023-04-22T08:57:39.760Z,20.18
2023-04-22T09:00:10.073Z,20.18
2023-04-22T09:02:39.506Z,19.57
2023-04-22T09:05:12.366Z,20.11
2023-04-22T09:07:42.535Z,19.97
2023-04-22T09:10:12.774Z,20.36
2023-04-22T09:12:43.530Z,21.00
2023-04-22T09:15:13.629Z,21.14
2023-04-22T09:17:43.673Z,21.03
2023-04-22T09:20:13.066Z,22.01
2023-04-22T09:22:45.226Z,21.62
2023-04-22T09:25:18.057Z,22.38
2023-04-22T09:27:53.335Z,22.00
2023-04-22T09:30:25.802Z,21.83
2023-04-22T09:32:56.078Z,21.29
2023-04-22T09:35:29.294Z,21.91
2023-04-22T09:38:03.670Z,21.73
2023-04-22T09:40:33.289Z,22.17
2023-04-22T09:43:03.754Z,21.44
2023-04-22T09:45:35.469Z,21.30
2023-04-22T09:48:08.580Z,21.14
2023-04-22T09:50:38.993Z,21.19
2023-04-22T09:53:10.769Z,22.11
2023-04-22T09:55:41.645Z,22.60
2023-04-22T09:58:12.227Z,22.42
2023-04-22T10:00:45.361Z,23.42
2023-04-22T10:03:14.909Z,23.52
2023-04-22T10:05:46.220Z,23.78
2023-04-22T10:08:17.134Z,23.16
2023-04-22T10:10:46.624Z,23.47
2023-04-22T10:13:15.086Z,23.71
2023-04-22T10:15:47.277Z,23.63
2023-04-22T10:18:19.883Z,23.16
2023-04-22T10:20:49.171Z,24.01
2023-04-22T10:23:21.383Z,24.88
2023-04-22T10:25:55.037Z,24.32
2023-04-22T10:28:25.351Z,24.42
2023-04-22T10:30:54.741Z,24.15
2023-04-22T10:33:43.607Z,24.35
2023-04-22T10:36:17.885Z,24.37
2023-04-22T10:39:18.984Z,24.90
2023-04-22T10:42:07.559Z,24.26
2023-04-22T10:44:50.465Z,24.29
2023-04-22T10:47:29.826Z,24.92
2023-04-22T10:50:17.345Z,24.65
2023-04-22T10:52:49.923Z,25.04
2023-04-22T10:55:23.060Z,25.02
2023-04-22T10:57:53.596Z,25.32
2023-04-22T11:05:30.897Z,25.00
2023-04-22T11:08:04.838Z,26.05
2023-04-22T11:10:37.181Z,25.79
2023-04-22T11:13:07.137Z,25.44
2023-04-22T11:15:40.838Z,25.13
2023-04-22T11:18:12.312Z,25.52
2023-04-22T11:20:43.146Z,25.25
2023-04-22T11:23:12.290Z,25.42
2023-04-22T11:25:43.989Z,26.05
2023-04-22T11:28:12.162Z,25.37
2023-04-22T11:30:40.587Z,26.25
2023-04-22T11:33:09.317Z,25.75
2023-04-22T11:35:41.004Z,26.22
2023-04-22T11:38:11.003Z,26.30
2023-04-22T11:40:45.710Z,25.69
2023-04-22T11:43:14.893Z,25.99
2023-04-22T11:45:43.218Z,26.68
2023-04-22T11:48:14.796Z,26.71
2023-04-22T11:50:44.853Z,26.81
2023-04-22T11:53:19.227Z,25.65
2023-04-22T11:55:50.869Z,25.48
2023-04-22T11:58:20.966Z,25.71
2023-04-22T12:00:51.882Z,26.11
2023-04-22T12:03:22.539Z,26.48
2023-04-22T12:05:54.708Z,26.05
2023-04-22T12:08:26.158Z,25.66
2023-04-22T12:10:56.588Z,26.45
2023-04-22T12:13:27.237Z,26.04
2023-04-22T12:15:58.655Z,25.27
2023-04-22T12:18:31.652Z,24.55
2023-04-22T12:21:09.672Z,24.48
2023-04-22T12:23:44.703Z,25.09
2023-04-22T12:26:13.708Z,25.42
2023-04-22T12:28:45.173Z,24.86
2023-04-22T12:31:15.200Z,24.78
2023-04-22T12:33:44.447Z,24.33
2023-04-22T12:36:12.728Z,24.23
2023-04-22T12:38:43.339Z,24.11
2023-04-22T12:41:11.719Z,24.17
2023-04-22T12:43:39.927Z,23.32
2023-04-22T12:46:12.203Z,23.17
2023-04-22T12:48:41.627Z,22.71
2023-04-22T12:51:09.845Z,22.44
2023-04-22T12:53:39.144Z,22.45
2023-04-22T12:56:09.593Z,22.15
2023-04-22T12:58:37.944Z,22.00
2023-04-22T13:01:06.413Z,21.85
2023-04-22T13:03:34.722Z,21.75
2023-04-22T13:06:03.443Z,21.59
2023-04-22T13:08:32.840Z,21.41
2023-04-22T13:11:02.806Z,21.43
2023-04-22T13:13:32.715Z,21.14
2023-04-22T13:16:00.834Z,20.94
2023-04-22T13:18:29.266Z,20.90
2023-04-22T13:20:57.891Z,20.69
2023-04-22T13:23:27.952Z,20.71
2023-04-22T13:25:58.903Z,20.35
2023-04-22T13:28:27.114Z,20.12
2023-04-22T13:30:57.292Z,20.14
2023-04-22T13:33:27.758Z,20.13
2023-04-22T13:35:56.580Z,20.08
2023-04-22T13:38:26.422Z,20.02
2023-04-22T13:40:55.020Z,19.91
2023-04-22T13:43:24.385Z,19.93
2023-04-22T13:45:52.760Z,19.79
2023-04-22T13:48:23.345Z,19.74
2023-04-22T13:50:51.832Z,19.67
2023-04-22T13:53:20.253Z,19.60
2023-04-22T13:55:48.488Z,19.51
2023-04-22T13:58:18.098Z,19.42
2023-04-22T14:00:46.640Z,19.53
2023-04-22T14:03:15.572Z,19.42
2023-04-22T14:05:45.878Z,19.49
2023-04-22T14:08:14.416Z,19.67
2023-04-22T14:10:43.867Z,19.65
2023-04-22T14:13:12.177Z,19.58
2023-04-22T14:15:40.704Z,19.72
2023-04-22T14:18:09.967Z,19.75
2023-04-22T14:20:39.043Z,19.79
2023-04-22T14:23:08.778Z,19.80
2023-04-22T14:25:37.107Z,19.77
2023-04-22T14:28:05.469Z,19.68
2023-04-22T14:30:34.071Z,19.76
2023-04-22T14:33:06.088Z,19.95
2023-04-22T14:35:35.708Z,20.11
2023-04-22T14:38:06.423Z,19.96
2023-04-22T14:40:37.291Z,19.90
2023-04-22T14:43:07.910Z,19.98
2023-04-22T14:45:36.812Z,19.90
2023-04-22T14:48:05.298Z,19.96
2023-04-22T14:50:34.435Z,20.01
2023-04-22T14:53:03.038Z,19.96
2023-04-22T14:55:32.731Z,19.93
2023-04-22T14:58:02.482Z,19.87
2023-04-22T15:00:30.825Z,19.69
2023-04-22T15:02:59.304Z,19.62
2023-04-22T15:05:29.389Z,19.46
2023-04-22T15:07:58.754Z,19.36
2023-04-22T15:10:28.181Z,19.31
2023-04-22T15:12:56.347Z,19.25
2023-04-22T15:15:27.784Z,19.11
2023-04-22T15:17:56.035Z,19.07
2023-04-22T15:20:26.746Z,19.03
2023-04-22T15:22:56.153Z,19.06
2023-04-22T15:25:29.669Z,19.08
2023-04-22T15:27:58.557Z,19.11
2023-04-22T15:30:28.744Z,19.19
2023-04-22T15:32:58.270Z,19.23
2023-04-22T15:35:26.342Z,19.06
2023-04-22T15:37:57.377Z,19.22
2023-04-22T15:40:25.895Z,19.17
2023-04-22T15:42:54.509Z,19.22
2023-04-22T15:45:23.304Z,19.21
2023-04-22T15:47:53.910Z,19.23
2023-04-22T15:50:23.372Z,19.21
2023-04-22T15:52:52.014Z,19.22
2023-04-22T15:55:21.396Z,19.06
2023-04-22T15:57:50.682Z,19.20
2023-04-22T16:00:19.549Z,19.16
2023-04-22T16:02:55.996Z,19.09
2023-04-22T16:05:28.632Z,18.84
2023-04-22T16:07:59.125Z,18.94
2023-04-22T16:10:27.845Z,19.16
2023-04-22T16:12:56.465Z,19.32
2023-04-22T16:15:26.380Z,19.40
2023-04-22T16:17:55.501Z,19.30
2023-04-22T16:20:26.113Z,19.37
2023-04-22T16:22:56.730Z,19.49
2023-04-22T16:25:28.105Z,19.31
2023-04-22T16:27:56.690Z,19.29
2023-04-22T16:30:24.935Z,19.28
2023-04-22T16:32:53.163Z,19.21
2023-04-22T16:35:22.247Z,19.27
2023-04-22T16:37:53.493Z,19.25
2023-04-22T16:40:22.411Z,19.11
2023-04-22T16:42:51.431Z,18.99
2023-04-22T16:45:20.635Z,18.95
2023-04-22T16:47:48.840Z,18.80
2023-04-22T16:50:17.225Z,18.78
2023-04-22T16:52:45.932Z,18.71
2023-04-22T16:55:16.033Z,18.61
2023-04-22T16:57:47.606Z,18.57
2023-04-22T17:00:16.858Z,18.49
2023-04-22T17:02:45.675Z,18.38
2023-04-22T17:05:16.900Z,18.27
2023-04-22T17:07:47.785Z,18.23
2023-04-22T17:10:17.875Z,18.11
2023-04-22T17:12:47.573Z,18.10
2023-04-22T17:15:16.466Z,18.10
2023-04-22T17:17:44.758Z,18.12
2023-04-22T17:20:13.232Z,18.12
2023-04-22T17:22:41.917Z,18.10
2023-04-22T17:25:12.359Z,18.09
2023-04-22T17:27:42.058Z,18.07
2023-04-22T17:30:10.929Z,18.11
2023-04-22T17:32:39.299Z,18.04
2023-04-22T17:35:08.567Z,18.02
2023-04-22T17:37:38.060Z,17.96
2023-04-22T17:40:08.455Z,17.84
2023-04-22T17:42:45.632Z,17.74
2023-04-22T17:45:18.853Z,17.59
2023-04-22T17:47:48.424Z,17.52
2023-04-22T17:50:16.600Z,17.45
2023-04-22T17:52:45.255Z,17.39
2023-04-22T17:55:13.920Z,17.36
2023-04-22T17:57:42.832Z,17.34
2023-04-22T18:00:14.469Z,17.22
2023-04-22T18:02:44.396Z,17.15
2023-04-22T18:05:13.701Z,17.08
2023-04-22T18:07:41.981Z,17.01
2023-04-22T18:10:11.771Z,17.08
2023-04-22T18:12:40.555Z,17.04
2023-04-22T18:15:09.463Z,17.08
2023-04-22T18:17:38.413Z,17.07
2023-04-22T18:20:18.267Z,16.95
2023-04-22T18:22:48.527Z,16.88
2023-04-22T18:25:17.091Z,16.79
2023-04-22T18:27:47.647Z,16.78
2023-04-22T18:30:18.253Z,16.68
2023-04-22T18:32:48.515Z,16.68
2023-04-22T18:35:18.344Z,16.71
2023-04-22T18:37:47.381Z,16.63
2023-04-22T18:40:17.402Z,16.59
2023-04-22T18:42:47.490Z,16.55
2023-04-22T18:45:18.881Z,16.53
2023-04-22T18:47:47.151Z,16.45
2023-04-22T18:50:17.642Z,16.39
2023-04-22T18:52:48.291Z,16.38
2023-04-22T18:55:16.608Z,16.24
2023-04-22T18:57:45.233Z,16.25
2023-04-22T19:00:15.168Z,16.26
2023-04-22T19:02:45.641Z,16.14
2023-04-22T19:05:14.706Z,16.06
2023-04-22T19:07:45.062Z,15.95
2023-04-22T19:10:15.525Z,15.91
2023-04-22T19:12:43.916Z,15.95
2023-04-22T19:15:13.084Z,15.85
2023-04-22T19:17:42.630Z,15.80
2023-04-22T19:20:11.716Z,15.77
2023-04-22T19:22:40.108Z,15.79
2023-04-22T19:25:09.011Z,15.65
2023-04-22T19:27:39.157Z,15.59
2023-04-22T19:30:09.714Z,15.55
2023-04-22T19:32:40.360Z,15.48
2023-04-22T19:35:15.697Z,15.42
2023-04-22T19:37:45.492Z,15.34
2023-04-22T19:40:16.003Z,15.35
2023-04-22T19:42:46.928Z,15.30
2023-04-22T19:45:15.303Z,15.24
2023-04-22T19:47:44.257Z,15.20
2023-04-22T19:50:16.028Z,15.17
2023-04-22T19:52:48.379Z,15.09
2023-04-22T19:55:17.379Z,15.02
2023-04-22T19:57:47.516Z,14.93
2023-04-22T20:00:18.079Z,14.84
2023-04-22T20:02:47.792Z,14.76
2023-04-22T20:05:18.613Z,14.69
2023-04-22T20:07:50.485Z,14.63
2023-04-22T20:10:22.588Z,14.51
2023-04-22T20:12:52.706Z,14.55
2023-04-22T20:15:21.715Z,14.58
2023-04-22T20:17:51.484Z,14.55
2023-04-22T20:20:22.932Z,14.61
2023-04-22T20:22:53.699Z,14.61
2023-04-22T20:25:23.536Z,14.56
2023-04-22T20:27:54.697Z,14.49
2023-04-22T20:30:23.985Z,14.39
2023-04-22T20:32:53.159Z,14.31
2023-04-22T20:35:22.685Z,14.21
2023-04-22T20:37:53.132Z,14.15
2023-04-22T20:40:24.622Z,14.02
2023-04-22T20:42:59.754Z,13.89
2023-04-22T20:45:28.697Z,13.88
2023-04-22T20:47:58.946Z,13.84
2023-04-22T20:50:33.626Z,13.82
2023-04-22T20:53:03.184Z,13.78
2023-04-22T20:55:36.789Z,13.71
2023-04-22T20:58:11.609Z,13.67
2023-04-22T21:00:42.416Z,13.60
2023-04-22T21:03:19.854Z,13.56
2023-04-22T21:05:49.809Z,13.51
2023-04-22T21:08:33.020Z,13.41
2023-04-22T21:11:02.888Z,13.37
2023-04-22T21:13:37.898Z,13.29
2023-04-22T21:16:15.810Z,13.25
2023-04-22T21:18:45.828Z,13.21
2023-04-22T21:21:17.013Z,13.17
2023-04-22T21:23:46.182Z,13.19
2023-04-22T21:26:18.448Z,13.17
2023-04-22T21:28:49.716Z,13.09
2023-04-22T21:31:19.123Z,13.09
2023-04-22T21:33:48.495Z,13.05
2023-04-22T21:36:17.568Z,13.07
2023-04-22T21:38:47.226Z,13.06
2023-04-22T21:41:15.618Z,13.03
2023-04-22T21:43:44.064Z,13.03
2023-04-22T21:46:14.176Z,13.00
2023-04-22T21:48:43.230Z,12.96
2023-04-22T21:51:11.783Z,12.95
2023-04-22T21:53:40.598Z,12.90
2023-04-22T21:56:13.579Z,12.88
2023-04-22T21:58:44.045Z,12.87
2023-04-22T22:01:14.008Z,12.88
2023-04-22T22:03:45.556Z,12.87
2023-04-22T22:06:14.405Z,12.87
2023-04-22T22:08:46.063Z,12.87
2023-04-22T22:11:27.617Z,12.88
2023-04-22T22:13:59.191Z,12.90
2023-04-22T22:16:29.605Z,12.90
2023-04-22T22:18:58.931Z,12.87
2023-04-22T22:21:27.510Z,12.91
2023-04-22T22:23:56.274Z,12.82
2023-04-22T22:26:26.215Z,12.74
2023-04-22T22:28:54.930Z,12.72
2023-04-22T22:31:23.122Z,12.73
2023-04-22T22:33:55.775Z,12.68
2023-04-22T22:36:25.390Z,12.69
2023-04-22T22:38:54.153Z,12.69
2023-04-22T22:41:22.153Z,12.68
2023-04-22T22:43:50.571Z,12.68
2023-04-22T22:46:18.899Z,12.73
2023-04-22T22:48:47.899Z,12.73
2023-04-22T22:51:18.634Z,12.73
2023-04-22T22:53:47.075Z,12.72
2023-04-22T22:56:18.315Z,12.74
2023-04-22T22:58:48.323Z,12.74
2023-04-22T23:01:17.367Z,12.70
2023-04-22T23:03:48.337Z,12.72
2023-04-22T23:06:18.252Z,12.68
2023-04-22T23:08:46.305Z,12.61
2023-04-22T23:11:14.808Z,12.59
2023-04-22T23:13:47.947Z,12.55
2023-04-22T23:16:16.702Z,12.52
2023-04-22T23:18:45.934Z,12.50
2023-04-22T23:21:15.425Z,12.45
2023-04-22T23:23:47.776Z,12.46
2023-04-22T23:26:16.763Z,12.42
2023-04-22T23:28:45.577Z,12.39
2023-04-22T23:31:15.132Z,12.32
2023-04-22T23:33:47.754Z,12.26
2023-04-22T23:36:19.135Z,12.26
2023-04-22T23:38:49.219Z,12.24
2023-04-22T23:41:17.498Z,12.28
2023-04-22T23:43:48.084Z,12.28
2023-04-22T23:46:18.500Z,12.24
2023-04-22T23:48:48.443Z,12.23
2023-04-22T23:51:17.270Z,12.23
2023-04-22T23:53:46.583Z,12.25
2023-04-22T23:56:20.326Z,12.21
2023-04-22T23:58:49.230Z,12.21
